Time;durP1;ratioP1;P1;durP2;ratioP2;P2;SDS_P1;SDS_P2;PMS_P1;PMS_P2;Temp;Humidity;BMP_temperature;BMP_pressure;BME280_temperature;BME280_humidity;BME280_pressure;Samples;Min_cycle;Max_cycle;Signal;HPM_P1;HPM_P2
2022/01/05 00:02:02;;;;;;;33.72;16.25;;;;;;;-0.14;100.00;94440.69;5047634;28;20045;-55
2022/01/05 00:04:29;;;;;;;33.42;17.23;;;;;;;-0.12;100.00;94443.88;5053555;28;20048;-55
2022/01/05 00:06:56;;;;;;;37.40;17.70;;;;;;;-0.06;100.00;94427.81;5055250;28;20150;-56
2022/01/05 00:09:22;;;;;;;42.00;19.45;;;;;;;-0.04;100.00;94428.41;5050736;28;20045;-57
2022/01/05 00:11:49;;;;;;;41.60;22.60;;;;;;;-0.01;100.00;94438.31;5057914;28;20164;-54
2022/01/05 00:14:16;;;;;;;51.05;22.95;;;;;;;-0.07;100.00;94431.34;5072263;28;20127;-55
2022/01/05 00:16:43;;;;;;;47.08;24.30;;;;;;;-0.10;100.00;94422.22;5071239;28;20109;-55
2022/01/05 00:19:10;;;;;;;38.92;18.58;;;;;;;-0.13;100.00;94416.66;5070386;28;20044;-52
2022/01/05 00:21:38;;;;;;;31.90;15.93;;;;;;;-0.17;100.00;94431.59;5075504;28;20037;-51
2022/01/05 00:24:05;;;;;;;53.00;19.77;;;;;;;-0.21;100.00;94428.56;5072007;28;20056;-55
2022/01/05 00:26:32;;;;;;;45.38;18.98;;;;;;;-0.24;100.00;94431.47;5070066;28;20040;-55
2022/01/05 00:28:59;;;;;;;29.42;14.65;;;;;;;-0.24;100.00;94423.78;5070119;28;20037;-54
2022/01/05 00:31:26;;;;;;;31.77;13.68;;;;;;;-0.27;100.00;94421.59;5072716;28;20048;-56
2022/01/05 00:33:54;;;;;;;29.48;12.70;;;;;;;-0.34;100.00;94410.47;5071153;28;20033;-56
2022/01/05 00:36:21;;;;;;;23.50;10.75;;;;;;;-0.28;100.00;94420.00;5074003;28;20528;-55
2022/01/05 00:38:48;;;;;;;25.00;12.15;;;;;;;-0.29;100.00;94417.59;5067479;28;20049;-55
2022/01/05 00:41:15;;;;;;;23.77;11.55;;;;;;;-0.30;100.00;94427.06;5081146;28;20131;-56
2022/01/05 00:43:42;;;;;;;22.55;11.55;;;;;;;-0.25;100.00;94399.19;5075841;28;20048;-55
2022/01/05 00:46:09;;;;;;;26.33;12.98;;;;;;;-0.26;100.00;94407.03;5072616;28;20048;-56
2022/01/05 00:48:36;;;;;;;26.25;12.48;;;;;;;-0.22;100.00;94419.31;5078767;28;20138;-55
2022/01/05 00:51:06;;;;;;;23.52;11.07;;;;;;;-0.26;100.00;94418.06;5075479;28;20089;-53
2022/01/05 00:53:34;;;;;;;24.27;12.07;;;;;;;-0.25;100.00;94413.75;5071420;28;20048;-52
2022/01/05 00:56:03;;;;;;;25.00;12.98;;;;;;;-0.18;100.00;94419.75;5074468;28;20730;-54
2022/01/05 00:58:29;;;;;;;26.25;13.10;;;;;;;-0.12;100.00;94415.72;5074830;28;20044;-55
2022/01/05 01:00:56;;;;;;;28.58;12.68;;;;;;;-0.22;100.00;94415.94;5070573;28;20135;-54
2022/01/05 01:03:26;;;;;;;32.25;15.50;;;;;;;-0.16;100.00;94412.69;5072468;28;20047;-55
2022/01/05 01:05:55;;;;;;;24.85;12.65;;;;;;;-0.17;100.00;94415.44;5074124;28;20575;-56
2022/01/05 01:08:22;;;;;;;24.88;13.63;;;;;;;-0.15;100.00;94413.50;5070901;28;20040;-56
2022/01/05 01:10:49;;;;;;;21.73;12.30;;;;;;;-0.15;100.00;94408.38;5071074;28;20047;-56
2022/01/05 01:13:17;;;;;;;32.08;15.45;;;;;;;-0.17;100.00;94407.75;5071767;28;21989;-55
2022/01/05 01:15:47;;;;;;;24.73;12.30;;;;;;;-0.15;100.00;94408.38;5067409;28;20047;-55
2022/01/05 01:18:14;;;;;;;24.15;11.90;;;;;;;-0.23;100.00;94397.25;5072358;28;20044;-54
2022/01/05 01:20:41;;;;;;;22.63;11.77;;;;;;;-0.34;100.00;94384.88;5074658;28;20091;-54
2022/01/05 01:23:09;;;;;;;24.30;14.63;;;;;;;-0.20;100.00;94406.31;5069909;28;20032;-56
2022/01/05 01:25:36;;;;;;;26.27;13.23;;;;;;;-0.31;100.00;94399.06;5075175;28;20118;-56
2022/01/05 01:28:03;;;;;;;26.33;12.52;;;;;;;-0.39;100.00;94407.63;5075683;28;20062;-54
2022/01/05 01:30:31;;;;;;;21.10;12.00;;;;;;;-0.54;100.00;94410.16;5072781;28;20040;-52
2022/01/05 01:32:59;;;;;;;21.65;12.20;;;;;;;-0.56;100.00;94390.81;5071186;28;20485;-53
2022/01/05 01:35:27;;;;;;;19.63;10.43;;;;;;;-0.71;100.00;94398.47;5071776;28;20040;-54
2022/01/05 01:37:54;;;;;;;21.55;10.57;;;;;;;-0.67;100.00;94409.94;5073928;28;20047;-56
2022/01/05 01:40:22;;;;;;;18.70;9.52;;;;;;;-0.71;100.00;94404.34;5073964;28;20044;-54
2022/01/05 01:42:49;;;;;;;21.67;10.73;;;;;;;-0.77;100.00;94402.50;5073930;28;20044;-56
2022/01/05 01:45:17;;;;;;;22.45;10.77;;;;;;;-0.80;100.00;94400.28;5071444;28;20113;-55
2022/01/05 01:47:45;;;;;;;18.98;10.25;;;;;;;-0.83;100.00;94395.50;5074153;28;20048;-56
2022/01/05 01:50:13;;;;;;;18.30;9.98;;;;;;;-0.89;100.00;94396.19;5073543;28;20044;-54
2022/01/05 01:52:40;;;;;;;20.35;9.82;;;;;;;-0.88;100.00;94403.69;5073563;28;20042;-55
2022/01/05 01:55:08;;;;;;;24.92;9.65;;;;;;;-0.86;100.00;94391.53;5072438;28;20059;-54
2022/01/05 01:57:38;;;;;;;19.92;10.95;;;;;;;-0.86;100.00;94390.75;5069863;28;20048;-53
2022/01/05 02:00:07;;;;;;;18.58;9.77;;;;;;;-0.84;100.00;94393.91;5070005;28;20058;-54
2022/01/05 02:02:44;;;;;;;22.50;9.85;;;;;;;-0.86;100.00;94388.97;5073800;28;20082;-56
2022/01/05 02:05:12;;;;;;;15.60;9.55;;;;;;;-0.83;100.00;94386.09;5071094;28;20053;-53
2022/01/05 02:07:39;;;;;;;17.52;9.32;;;;;;;-0.83;100.00;94387.81;5071002;28;20045;-54
2022/01/05 02:10:09;;;;;;;18.38;8.85;;;;;;;-0.80;100.00;94384.94;5071888;28;20045;-53
2022/01/05 02:12:36;;;;;;;17.60;8.73;;;;;;;-0.79;100.00;94381.41;5068876;28;20085;-56
2022/01/05 02:15:04;;;;;;;17.92;9.70;;;;;;;-0.72;100.00;94377.22;5073191;28;20115;-54
2022/01/05 02:17:48;;;;;;;16.33;9.13;;;;;;;-0.71;100.00;94368.56;5070714;28;20043;-54
2022/01/05 02:20:19;;;;;;;13.77;8.35;;;;;;;-0.64;100.00;94373.78;5071847;28;20506;-54
2022/01/05 02:22:47;;;;;;;17.88;9.32;;;;;;;-0.57;100.00;94373.91;5069273;28;20044;-55
2022/01/05 02:25:14;;;;;;;21.63;8.77;;;;;;;-0.52;100.00;94376.69;5071605;28;20037;-54
2022/01/05 02:27:42;;;;;;;16.02;8.70;;;;;;;-0.59;100.00;94377.41;5076219;28;20048;-55
2022/01/05 02:30:12;;;;;;;16.38;8.13;;;;;;;-0.55;100.00;94364.28;5071677;28;20044;-55
2022/01/05 02:32:39;;;;;;;15.65;7.30;;;;;;;-0.47;100.00;94359.06;5070252;28;20048;-55
2022/01/05 02:35:09;;;;;;;16.02;8.45;;;;;;;-0.47;100.00;94359.06;5070761;28;20474;-55
2022/01/05 02:37:44;;;;;;;15.23;8.63;;;;;;;-0.47;100.00;94354.78;5071752;28;20509;-54
2022/01/05 02:40:14;;;;;;;18.73;8.35;;;;;;;-0.44;100.00;94358.72;5068035;28;20059;-56
2022/01/05 02:42:42;;;;;;;18.45;9.30;;;;;;;-0.45;100.00;94352.00;5071149;28;20064;-54
2022/01/05 02:45:11;;;;;;;18.42;9.75;;;;;;;-0.34;100.00;94354.16;5068549;28;20048;-55
2022/01/05 02:47:39;;;;;;;15.02;9.10;;;;;;;-0.61;100.00;94348.66;5072093;28;20044;-52
2022/01/05 02:50:08;;;;;;;25.25;14.65;;;;;;;-0.41;100.00;94351.50;5069452;28;20044;-55
2022/01/05 02:52:35;;;;;;;20.60;11.13;;;;;;;-0.40;100.00;94349.72;5069567;28;20041;-54
2022/01/05 02:55:04;;;;;;;26.65;12.82;;;;;;;-0.38;100.00;94355.47;5071743;28;20058;-54
2022/01/05 02:57:31;;;;;;;27.35;14.60;;;;;;;-0.43;100.00;94350.09;5070228;28;20474;-54
2022/01/05 02:59:58;;;;;;;36.58;18.63;;;;;;;-0.46;100.00;94351.22;5064268;28;20044;-59
2022/01/05 03:02:25;;;;;;;35.28;18.13;;;;;;;-0.48;100.00;94352.38;5064039;28;20475;-59
2022/01/05 03:04:52;;;;;;;29.52;16.42;;;;;;;-0.51;100.00;94347.59;5063715;28;20114;-58
2022/01/05 03:07:19;;;;;;;27.50;13.60;;;;;;;-0.45;100.00;94347.72;5060481;28;20051;-57
2022/01/05 03:09:46;;;;;;;31.13;14.20;;;;;;;-0.44;100.00;94348.50;5060987;28;20452;-58
2022/01/05 03:12:13;;;;;;;27.33;15.60;;;;;;;-0.44;100.00;94356.19;5059376;28;20048;-58
2022/01/05 03:14:40;;;;;;;23.73;13.63;;;;;;;-0.42;100.00;94346.56;5064236;28;20036;-59
2022/01/05 03:17:07;;;;;;;22.52;11.70;;;;;;;-0.42;100.00;94347.34;5059397;28;20417;-59
2022/01/05 03:19:34;;;;;;;17.60;8.40;;;;;;;-0.49;100.00;94345.66;5063952;28;20039;-57
2022/01/05 03:22:02;;;;;;;23.10;8.27;;;;;;;-0.60;100.00;94340.00;5060823;28;20051;-59
2022/01/05 03:24:29;;;;;;;13.80;8.50;;;;;;;-0.68;100.00;94337.53;5065328;28;20029;-59
2022/01/05 03:26:56;;;;;;;12.93;6.82;;;;;;;-0.67;100.00;94339.09;5061392;28;20040;-59
2022/01/05 03:29:23;;;;;;;28.13;6.93;;;;;;;-0.73;100.00;94332.13;5061098;28;20055;-58
2022/01/05 03:31:50;;;;;;;15.70;8.02;;;;;;;-0.77;100.00;94336.00;5062139;28;20063;-59
2022/01/05 03:34:19;;;;;;;19.30;7.95;;;;;;;-0.75;100.00;94331.50;5060829;28;20418;-58
2022/01/05 03:36:47;;;;;;;16.25;7.68;;;;;;;-0.80;100.00;94338.91;5060341;28;20037;-59
2022/01/05 03:39:14;;;;;;;17.75;8.10;;;;;;;-0.80;100.00;94333.78;5059654;28;20422;-58
2022/01/05 03:41:41;;;;;;;19.40;9.93;;;;;;;-0.81;100.00;94333.00;5062839;28;20428;-59
2022/01/05 03:44:08;;;;;;;41.45;14.25;;;;;;;-0.71;100.00;94337.06;5059920;28;20406;-59
2022/01/05 03:46:35;;;;;;;55.35;17.65;;;;;;;-0.69;100.00;94330.81;5059470;28;20040;-59
2022/01/05 03:49:03;;;;;;;48.42;19.40;;;;;;;-0.68;100.00;94329.84;5058883;28;20048;-59
2022/01/05 03:51:30;;;;;;;38.42;14.20;;;;;;;-0.76;100.00;94335.03;5061048;28;20036;-59
2022/01/05 03:53:57;;;;;;;26.52;12.05;;;;;;;-0.74;100.00;94333.09;5063779;28;20047;-58
2022/01/05 03:56:23;;;;;;;27.95;12.05;;;;;;;-0.76;100.00;94329.91;5060158;28;20051;-59
2022/01/05 03:58:50;;;;;;;35.45;13.07;;;;;;;-0.78;100.00;94337.75;5064667;28;20050;-59
2022/01/05 04:01:17;;;;;;;33.70;14.82;;;;;;;-0.72;100.00;94341.41;5058841;28;20048;-59
2022/01/05 04:03:44;;;;;;;27.92;14.00;;;;;;;-0.73;100.00;94347.47;5060273;28;20037;-58
2022/01/05 04:06:11;;;;;;;28.02;14.65;;;;;;;-0.83;100.00;94344.34;5059670;28;20557;-59
2022/01/05 04:08:38;;;;;;;29.65;16.50;;;;;;;-0.85;100.00;94341.19;5061388;28;20037;-59
2022/01/05 04:11:05;;;;;;;25.20;11.75;;;;;;;-0.81;100.00;94337.31;5059914;28;20048;-59
2022/01/05 04:13:32;;;;;;;23.25;12.13;;;;;;;-0.87;100.00;94327.78;5059955;28;20082;-58
2022/01/05 04:15:59;;;;;;;28.13;11.80;;;;;;;-0.92;100.00;94317.25;5063260;28;20185;-59
2022/01/05 04:18:26;;;;;;;26.90;12.13;;;;;;;-0.93;100.00;94313.13;5059340;28;20476;-58
2022/01/05 04:20:53;;;;;;;21.63;11.88;;;;;;;-0.99;100.00;94315.41;5059612;28;20055;-57
2022/01/05 04:23:20;;;;;;;20.27;10.43;;;;;;;-0.99;100.00;94314.59;5060905;28;20044;-59
2022/01/05 04:25:46;;;;;;;20.77;9.40;;;;;;;-1.04;100.00;94311.78;5059798;28;20051;-59
2022/01/05 04:28:13;;;;;;;16.90;9.40;;;;;;;-1.00;100.00;94313.03;5061081;28;20048;-58
2022/01/05 04:30:40;;;;;;;26.45;9.65;;;;;;;-0.98;100.00;94305.97;5063690;28;20047;-58
2022/01/05 04:33:07;;;;;;;20.65;10.43;;;;;;;-0.98;100.00;94311.88;5061297;28;20058;-59
2022/01/05 04:35:54;;;;;;;27.98;9.98;;;;;;;-1.00;100.00;94313.03;5064012;28;20040;-56
2022/01/05 04:38:21;;;;;;;12.07;7.35;;;;;;;-1.00;100.00;94318.91;5070894;28;20040;-56
2022/01/05 04:40:48;;;;;;;16.90;10.13;;;;;;;-1.10;100.00;94295.34;5070740;28;20418;-56
2022/01/05 04:43:14;;;;;;;21.20;9.93;;;;;;;-0.92;100.00;94319.81;5066753;28;20043;-56
2022/01/05 04:45:41;;;;;;;21.48;10.68;;;;;;;-0.93;100.00;94318.25;5069870;28;20551;-55
2022/01/05 04:48:08;;;;;;;19.38;9.07;;;;;;;-0.94;100.00;94311.53;5063710;28;20048;-56
2022/01/05 04:50:35;;;;;;;20.50;8.98;;;;;;;-1.00;100.00;94318.91;5073197;28;20043;-57
2022/01/05 04:53:02;;;;;;;19.98;10.20;;;;;;;-0.93;100.00;94318.25;5070230;28;20044;-57
2022/01/05 04:55:29;;;;;;;20.05;10.77;;;;;;;-0.99;100.00;94320.53;5072568;28;20059;-55
2022/01/05 04:57:56;;;;;;;22.88;9.35;;;;;;;-1.01;100.00;94309.69;5066035;28;20040;-55
2022/01/05 05:00:23;;;;;;;32.35;14.25;;;;;;;-1.01;100.00;94312.25;5072560;28;20048;-55
2022/01/05 05:02:50;;;;;;;26.73;14.40;;;;;;;-1.07;100.00;94320.56;5063938;28;20040;-56
2022/01/05 05:05:17;;;;;;;17.92;9.35;;;;;;;-1.09;100.00;94325.06;5067782;28;20845;-55
2022/01/05 05:07:44;;;;;;;19.25;9.75;;;;;;;-1.09;100.00;94327.63;5067222;28;20044;-56
2022/01/05 05:10:11;;;;;;;26.13;9.35;;;;;;;-1.11;100.00;94332.13;5063181;28;20040;-57
2022/01/05 05:12:38;;;;;;;136.55;55.67;;;;;;;-1.21;100.00;94336.66;5072597;28;20048;-57
2022/01/05 05:15:05;;;;;;;26.58;14.68;;;;;;;-1.19;100.00;94339.81;5070154;28;20032;-56
2022/01/05 05:17:32;;;;;;;26.98;12.70;;;;;;;-1.20;100.00;94343.38;5065452;28;20040;-56
2022/01/05 05:19:59;;;;;;;18.80;10.70;;;;;;;-1.16;100.00;94339.50;5069269;28;20036;-55
2022/01/05 05:22:26;;;;;;;25.90;11.90;;;;;;;-1.14;100.00;94337.56;5070405;28;20520;-56
2022/01/05 05:24:53;;;;;;;25.75;10.93;;;;;;;-1.09;100.00;94350.63;5070176;28;20045;-55
2022/01/05 05:27:19;;;;;;;17.58;9.68;;;;;;;-1.08;100.00;94357.34;5067624;28;20044;-56
2022/01/05 05:29:47;;;;;;;25.90;10.65;;;;;;;-1.07;100.00;94355.56;5074780;28;20498;-55
2022/01/05 05:32:13;;;;;;;27.65;15.30;;;;;;;-1.07;100.00;94364.03;5070483;28;20053;-56
2022/01/05 05:34:40;;;;;;;36.20;17.13;;;;;;;-1.06;100.00;94372.47;5070194;28;20098;-54
2022/01/05 05:37:07;;;;;;;33.65;18.05;;;;;;;-1.12;100.00;94376.50;5070891;28;20056;-55
2022/01/05 05:39:34;;;;;;;29.92;14.77;;;;;;;-1.21;100.00;94372.41;5070738;28;20044;-55
2022/01/05 05:42:01;;;;;;;34.90;15.50;;;;;;;-1.20;100.00;94368.91;5067625;28;20516;-54
2022/01/05 05:44:28;;;;;;;39.20;16.75;;;;;;;-1.22;100.00;94368.28;5069667;28;20132;-55
2022/01/05 05:46:55;;;;;;;37.53;17.08;;;;;;;-1.27;100.00;94373.13;5072468;28;20036;-56
2022/01/05 05:49:22;;;;;;;29.85;16.02;;;;;;;-1.30;100.00;94368.34;5068436;28;20524;-54
2022/01/05 05:51:49;;;;;;;96.20;48.38;;;;;;;-1.26;100.00;94369.56;5065000;28;20048;-56
2022/01/05 05:54:16;;;;;;;47.45;25.17;;;;;;;-1.31;100.00;94371.88;5071318;28;20159;-55
2022/01/05 05:56:43;;;;;;;34.47;19.52;;;;;;;-1.34;100.00;94378.09;5068847;28;20066;-54
2022/01/05 05:59:10;;;;;;;44.55;19.15;;;;;;;-1.35;100.00;94387.53;5068213;28;20442;-53
2022/01/05 06:01:37;;;;;;;49.00;20.75;;;;;;;-1.34;100.00;94378.09;5069596;28;20506;-55
2022/01/05 06:04:04;;;;;;;31.15;16.65;;;;;;;-1.32;100.00;94376.16;5070943;28;20036;-56
2022/01/05 06:06:31;;;;;;;40.05;19.65;;;;;;;-1.33;100.00;94373.78;5069771;28;20044;-55
2022/01/05 06:08:58;;;;;;;37.45;18.85;;;;;;;-1.37;100.00;94384.34;5071564;28;20571;-53
2022/01/05 06:11:25;;;;;;;42.80;17.63;;;;;;;-1.32;100.00;94390.69;5070223;28;21579;-54
2022/01/05 06:13:52;;;;;;;32.75;17.17;;;;;;;-1.29;100.00;94391.16;5069726;28;20414;-55
2022/01/05 06:16:19;;;;;;;32.55;15.52;;;;;;;-1.31;100.00;94382.09;5072134;28;20052;-55
2022/01/05 06:18:46;;;;;;;25.48;13.85;;;;;;;-1.26;100.00;94392.56;5073533;28;20044;-53
2022/01/05 06:21:13;;;;;;;29.95;11.75;;;;;;;-1.24;100.00;94393.19;5073647;28;20063;-54
2022/01/05 06:23:40;;;;;;;23.02;12.15;;;;;;;-1.24;100.00;94394.00;5068435;28;20052;-54
2022/01/05 06:26:07;;;;;;;24.80;11.05;;;;;;;-1.25;100.00;94386.50;5073864;28;20531;-54
2022/01/05 06:28:34;;;;;;;31.38;15.93;;;;;;;-1.19;100.00;94385.81;5065300;28;20041;-54
2022/01/05 06:31:01;;;;;;;35.85;18.27;;;;;;;-1.12;100.00;94391.84;5069397;28;20069;-56
2022/01/05 06:33:28;;;;;;;49.13;26.42;;;;;;;-1.08;100.00;94392.31;5070869;28;20463;-55
2022/01/05 06:35:55;;;;;;;59.30;28.33;;;;;;;-0.99;100.00;94392.09;5066852;28;20066;-54
2022/01/05 06:38:22;;;;;;;65.32;32.90;;;;;;;-0.90;100.00;94397.13;5067311;28;20040;-53
2022/01/05 06:40:48;;;;;;;46.45;27.55;;;;;;;-0.83;100.00;94395.50;5073398;28;20036;-54
2022/01/05 06:43:15;;;;;;;46.10;25.55;;;;;;;-0.79;100.00;94391.66;5067261;28;20055;-54
2022/01/05 06:45:42;;;;;;;41.42;21.73;;;;;;;-0.73;100.00;94393.50;5072385;28;20422;-55
2022/01/05 06:48:09;;;;;;;61.72;32.90;;;;;;;-0.63;100.00;94386.41;5075074;28;20044;-54
2022/01/05 06:50:36;;;;;;;75.30;30.05;;;;;;;-0.56;100.00;94385.69;5072035;28;20048;-53
2022/01/05 06:53:03;;;;;;;55.47;28.55;;;;;;;-0.46;100.00;94391.38;5075863;28;20509;-56
2022/01/05 06:55:30;;;;;;;62.13;29.75;;;;;;;-0.43;100.00;94391.81;5071524;28;20040;-54
2022/01/05 06:57:57;;;;;;;46.83;24.20;;;;;;;-0.32;100.00;94393.16;5075632;28;20041;-56
2022/01/05 07:00:24;;;;;;;51.85;24.10;;;;;;;-0.20;100.00;94391.78;5074051;28;20040;-54
2022/01/05 07:02:51;;;;;;;38.80;21.98;;;;;;;-0.04;100.00;94395.13;5070682;28;20045;-55
2022/01/05 07:05:18;;;;;;;74.70;30.48;;;;;;;0.09;100.00;94382.53;5072276;28;20118;-54
2022/01/05 07:07:45;;;;;;;72.55;33.17;;;;;;;0.16;100.00;94380.84;5069557;28;20040;-54
2022/01/05 07:10:12;;;;;;;54.03;30.13;;;;;;;0.32;100.00;94390.09;5075243;28;20592;-55
2022/01/05 07:12:45;;;;;;;54.80;28.77;;;;;;;0.50;100.00;94392.28;5073623;28;20521;-55
2022/01/05 07:15:12;;;;;;;50.90;26.70;;;;;;;0.73;100.00;94396.50;5071270;28;20049;-52
2022/01/05 07:17:39;;;;;;;56.47;28.23;;;;;;;0.90;100.00;94397.88;5073916;28;20055;-54
2022/01/05 07:20:07;;;;;;;53.92;28.45;;;;;;;1.03;100.00;94396.41;5078131;28;20752;-50
2022/01/05 07:22:35;;;;;;;40.78;25.30;;;;;;;1.17;100.00;94397.31;5071090;28;20040;-53
2022/01/05 07:25:03;;;;;;;41.80;20.40;;;;;;;1.25;100.00;94377.47;5072412;28;20532;-54
2022/01/05 07:27:30;;;;;;;28.90;16.25;;;;;;;1.54;100.00;94393.72;5074686;28;20051;-55
2022/01/05 07:29:57;;;;;;;23.85;13.38;;;;;;;1.71;100.00;94405.31;5074218;28;20044;-55
2022/01/05 07:32:24;;;;;;;28.95;15.02;;;;;;;1.87;100.00;94398.28;5070348;28;20495;-54
2022/01/05 07:34:50;;;;;;;20.52;11.65;;;;;;;1.96;100.00;94397.16;5073352;28;20041;-53
2022/01/05 07:37:17;;;;;;;20.05;12.68;;;;;;;2.14;100.00;94403.59;5075236;28;20569;-54
2022/01/05 07:39:44;;;;;;;27.70;13.45;;;;;;;2.30;100.00;94408.44;5066458;28;20074;-55
2022/01/05 07:42:11;;;;;;;23.00;11.48;;;;;;;2.40;100.00;94388.31;5068559;28;20103;-55
2022/01/05 07:44:39;;;;;;;24.92;11.70;;;;;;;2.64;100.00;94399.09;5072430;28;20053;-55
2022/01/05 07:47:07;;;;;;;20.17;11.80;;;;;;;2.82;100.00;94404.50;5070076;28;20044;-55
2022/01/05 07:49:34;;;;;;;20.30;10.55;;;;;;;3.02;100.00;94401.19;5069695;28;20054;-55
2022/01/05 07:52:01;;;;;;;21.95;10.82;;;;;;;3.17;100.00;94401.84;5066347;28;20043;-55
2022/01/05 07:54:28;;;;;;;34.47;14.73;;;;;;;3.35;100.00;94400.47;5070479;28;20428;-53
2022/01/05 07:56:55;;;;;;;30.45;13.75;;;;;;;3.57;100.00;94404.44;5069718;28;20452;-54
2022/01/05 07:59:21;;;;;;;17.85;11.27;;;;;;;3.77;100.00;94408.81;5069791;28;20040;-54
2022/01/05 08:01:48;;;;;;;18.45;9.52;;;;;;;3.93;100.00;94403.25;5070902;28;20418;-55
2022/01/05 08:04:16;;;;;;;16.42;8.98;;;;;;;4.10;100.00;94402.84;5070903;28;20405;-56
2022/01/05 08:06:43;;;;;;;15.95;8.90;;;;;;;4.25;100.00;94390.53;5073997;28;20055;-55
2022/01/05 08:09:10;;;;;;;19.38;10.55;;;;;;;4.46;100.00;94391.25;5073023;28;20417;-54
2022/01/05 08:11:37;;;;;;;16.58;9.00;;;;;;;4.64;100.00;94399.13;5072929;28;20461;-55
2022/01/05 08:14:03;;;;;;;18.77;11.50;;;;;;;4.77;100.00;94396.50;5074073;28;20047;-55
2022/01/05 08:16:30;;;;;;;22.83;11.70;;;;;;;4.88;100.00;94389.09;5069988;28;20044;-53
2022/01/05 08:18:57;;;;;;;15.57;8.88;;;;;;;5.11;100.00;94389.41;5071350;28;22233;-57
2022/01/05 08:21:24;;;;;;;19.73;9.25;;;;;;;5.24;100.00;94385.13;5070863;28;20135;-55
2022/01/05 08:23:51;;;;;;;23.85;12.02;;;;;;;5.42;100.00;94395.56;5069325;28;20128;-54
2022/01/05 08:26:18;;;;;;;47.42;20.17;;;;;;;5.59;100.00;94400.22;5070081;28;20047;-55
2022/01/05 08:28:45;;;;;;;29.35;12.85;;;;;;;5.66;100.00;94395.78;5070916;28;20052;-54
2022/01/05 08:31:12;;;;;;;26.70;11.07;;;;;;;5.77;100.00;94397.69;5069550;28;20105;-56
2022/01/05 08:33:39;;;;;;;29.48;12.65;;;;;;;5.88;100.00;94398.78;5070307;28;20052;-56
2022/01/05 08:36:06;;;;;;;32.80;14.90;;;;;;;5.91;100.00;94388.03;5071302;28;20422;-55
2022/01/05 08:38:35;;;;;;;24.63;13.18;;;;;;;6.01;100.00;94387.56;5068360;28;20064;-55
2022/01/05 08:41:02;;;;;;;34.70;17.10;;;;;;;6.07;100.00;94394.50;5068386;28;20055;-55
2022/01/05 08:43:31;;;;;;;32.50;16.42;;;;;;;6.16;100.00;94390.63;5073425;28;20047;-55
2022/01/05 08:45:59;;;;;;;29.77;16.40;;;;;;;6.25;100.00;94394.50;5072520;28;20070;-55
2022/01/05 08:48:26;;;;;;;30.92;15.23;;;;;;;6.41;100.00;94387.19;5072800;28;20049;-56
2022/01/05 08:50:53;;;;;;;21.92;11.82;;;;;;;6.58;100.00;94393.38;5073270;28;20126;-56
2022/01/05 08:53:21;;;;;;;30.25;15.30;;;;;;;6.61;100.00;94387.75;5068768;28;20055;-57
2022/01/05 08:55:49;;;;;;;32.50;13.82;;;;;;;6.66;99.22;94385.31;5072887;28;20489;-56
2022/01/05 08:58:18;;;;;;;27.75;12.55;;;;;;;6.79;98.43;94378.38;5074620;28;20040;-56
2022/01/05 09:00:45;;;;;;;26.20;13.18;;;;;;;7.05;100.00;94383.22;5070917;28;20044;-57
2022/01/05 09:03:16;;;;;;;23.35;12.10;;;;;;;7.14;97.69;94380.34;5076655;28;20052;-57
2022/01/05 09:05:45;;;;;;;31.60;15.18;;;;;;;7.22;96.37;94373.06;5075708;28;20038;-57
2022/01/05 09:08:13;;;;;;;30.58;15.45;;;;;;;7.35;95.19;94374.66;5077786;28;20105;-57
2022/01/05 09:10:40;;;;;;;23.77;9.30;;;;;;;7.50;94.01;94374.25;5075730;28;20066;-57
2022/01/05 09:13:09;;;;;;;34.22;15.73;;;;;;;7.41;93.83;94376.38;5075847;28;20036;-56
2022/01/05 09:15:37;;;;;;;21.30;12.60;;;;;;;7.43;94.21;94376.16;5078550;28;20032;-55
2022/01/05 09:18:04;;;;;;;20.10;10.48;;;;;;;7.54;93.97;94382.38;5077829;28;20041;-56
2022/01/05 09:20:32;;;;;;;20.00;8.95;;;;;;;7.43;94.13;94353.59;5075183;28;20110;-56
2022/01/05 09:23:00;;;;;;;17.75;8.40;;;;;;;7.50;94.33;94363.09;5075870;28;20037;-56
2022/01/05 09:25:27;;;;;;;19.52;10.45;;;;;;;7.71;95.38;94362.56;5074965;28;20051;-57
2022/01/05 09:27:54;;;;;;;15.90;9.40;;;;;;;7.85;92.71;94361.34;5077298;28;20046;-57
2022/01/05 09:30:22;;;;;;;22.77;11.40;;;;;;;7.68;92.24;94355.22;5073122;28;20036;-57
2022/01/05 09:32:50;;;;;;;14.73;8.90;;;;;;;7.92;92.62;94360.44;5074340;28;20040;-57
2022/01/05 09:35:20;;;;;;;19.52;8.10;;;;;;;8.11;91.55;94359.31;5076464;28;20047;-58
2022/01/05 09:43:28;;;;;;;17.15;8.10;;;;;;;8.46;86.78;94340.31;5075016;28;20058;-57
2022/01/05 09:46:09;;;;;;;18.17;9.68;;;;;;;8.56;85.29;94340.53;5068442;28;20106;-58
2022/01/05 09:48:54;;;;;;;21.67;11.13;;;;;;;8.53;84.81;94330.59;5064365;28;20513;-57
2022/01/05 09:51:25;;;;;;;37.40;17.67;;;;;;;8.78;84.60;94334.72;5064514;28;20124;-57
2022/01/05 09:53:53;;;;;;;26.60;13.10;;;;;;;9.03;85.29;94320.63;5065784;28;20119;-58
2022/01/05 09:56:39;;;;;;;16.42;9.77;;;;;;;9.07;81.63;94313.94;5071280;28;20048;-58
2022/01/05 09:59:06;;;;;;;34.97;15.80;;;;;;;9.07;80.74;94319.13;5070245;28;20042;-58
2022/01/05 10:01:37;;;;;;;15.52;8.88;;;;;;;9.14;82.17;94304.19;5065864;28;20056;-58
2022/01/05 10:04:04;;;;;;;17.67;9.68;;;;;;;9.26;81.89;94307.50;5067351;28;20044;-58
2022/01/05 10:06:38;;;;;;;18.85;8.13;;;;;;;9.34;82.43;94304.50;5073516;28;20040;-58
2022/01/05 10:09:05;;;;;;;16.48;9.25;;;;;;;9.55;79.18;94310.03;5064145;28;20049;-58
2022/01/05 10:11:33;;;;;;;19.73;9.20;;;;;;;9.52;79.73;94306.09;5063627;28;20049;-58
2022/01/05 10:14:00;;;;;;;22.02;8.93;;;;;;;9.63;78.90;94306.25;5064169;28;20040;-57
2022/01/05 10:16:27;;;;;;;17.98;9.15;;;;;;;9.90;80.50;94296.78;5065673;28;20036;-58
2022/01/05 10:18:54;;;;;;;19.05;10.23;;;;;;;9.97;79.83;94296.59;5066843;28;20055;-58
2022/01/05 10:21:21;;;;;;;15.63;8.73;;;;;;;10.26;78.70;94294.63;5069680;28;20040;-58
2022/01/05 10:23:50;;;;;;;16.85;9.32;;;;;;;10.40;76.39;94287.28;5063560;28;20043;-57
2022/01/05 10:26:32;;;;;;;18.45;9.20;;;;;;;10.56;75.52;94293.44;5065440;28;20051;-58
2022/01/05 10:29:00;;;;;;;13.05;7.07;;;;;;;10.54;74.69;94279.09;5065291;28;20416;-57
2022/01/05 10:31:55;;;;;;;17.17;8.15;;;;;;;10.73;74.72;94272.53;5063790;28;20036;-58
2022/01/05 10:34:28;;;;;;;12.70;6.90;;;;;;;10.78;74.99;94271.78;5072666;28;20487;-58
2022/01/05 10:37:00;;;;;;;14.85;7.95;;;;;;;10.80;77.33;94267.91;5066959;28;20048;-58
2022/01/05 10:39:38;;;;;;;19.83;8.35;;;;;;;11.04;73.60;94267.63;5062004;28;20570;-58
2022/01/05 10:42:11;;;;;;;16.63;8.43;;;;;;;11.29;72.71;94262.63;5066906;28;20040;-57
2022/01/05 10:44:44;;;;;;;14.07;8.20;;;;;;;11.37;68.92;94255.38;5068286;28;20045;-56
2022/01/05 10:47:15;;;;;;;13.15;7.40;;;;;;;11.49;67.52;94258.59;5063234;28;20128;-57
2022/01/05 10:49:42;;;;;;;11.45;5.75;;;;;;;11.29;64.32;94246.22;5070217;28;20851;-57
2022/01/05 10:52:22;;;;;;;20.50;8.13;;;;;;;11.54;66.36;94255.22;5061266;28;20418;-58
2022/01/05 10:54:50;;;;;;;15.48;7.85;;;;;;;11.60;64.32;94239.38;5068183;28;20529;-57
2022/01/05 10:57:17;;;;;;;15.65;8.38;;;;;;;11.85;65.21;94248.41;5065673;28;20056;-57
2022/01/05 10:59:47;;;;;;;17.48;8.90;;;;;;;12.08;64.81;94238.59;5064289;28;20491;-58
2022/01/05 11:02:34;;;;;;;15.45;8.40;;;;;;;12.10;62.76;94236.53;5065804;28;20052;-58
2022/01/05 11:05:01;;;;;;;18.60;8.85;;;;;;;12.36;63.46;94234.81;5065116;28;20044;-57
2022/01/05 11:07:31;;;;;;;16.80;9.25;;;;;;;12.42;63.26;94224.13;5061137;28;21379;-57
2022/01/05 11:10:05;;;;;;;14.35;8.68;;;;;;;12.75;63.54;94226.56;5069667;28;20068;-57
2022/01/05 11:12:41;;;;;;;17.35;9.65;;;;;;;12.96;62.81;94222.13;5064654;28;20056;-58
2022/01/05 11:15:37;;;;;;;17.13;8.60;;;;;;;13.20;61.64;94228.44;5068247;28;20071;-57
2022/01/05 11:18:15;;;;;;;16.13;8.38;;;;;;;13.34;60.11;94222.69;5067164;28;20050;-58
2022/01/05 11:20:57;;;;;;;15.38;8.70;;;;;;;13.23;60.27;94218.50;5069665;28;20452;-57
2022/01/05 11:23:27;;;;;;;15.68;8.43;;;;;;;13.45;60.42;94213.81;5062192;28;20517;-58
2022/01/05 11:25:56;;;;;;;11.68;6.78;;;;;;;13.59;59.74;94206.19;5065161;28;20048;-58
2022/01/05 11:28:25;;;;;;;18.88;7.88;;;;;;;13.74;58.08;94205.38;5069815;28;20418;-57